Etusivu
METAR-TAF:

METAR-TAF

Lentoasemat :

Pecos, Texas, Yhdysvallat

Leveyspiiri: 31-22-56N, Pituuspiiri: 103-30-38W, korkeus merenpinnasta: 796 m

Tämänhetkinen sää

Tämä raportti tehtiin 28 minuuttia sitten, kello 06.15 UTC
Tuuli 5 kn idästä/koillisesta
Lämpötila 10°C
Kosteus 76%
Ilmanpaine 1015 hPa
Näkyvyys: 16.1 km
selkeää

METAR: KPEQ 050615Z AUTO 07005KT 10SM CLR 10/06 A2998 RMK AO2 T00950055

Aika: 01:43 (06:43 UTC)

Sääennuste

Tämä raportti tehtiin 1 tunti ja 12 minuuttia sitten, kello 05.31 UTC
Ennuste voimassa 05. päivästä klo 06 UTC - 06. päivään klo 06 UTC
Tuuli 9 kn idästä/koillisesta
Näkyvyys: 10 km
Hajonneita pilviä 25000 ft:n korkeudessa

TAF: KPEQ 050531Z 0506/0606 07009KT P6SM BKN250

Säähavainnot ja -ennusteet yli 4000 lentoasemalta (METAR- ja TAF-raportit).

Käytössä olevat sääasemat on merkitty karttaan keltaisilla ja punaisilla pisteillä.

Aseta hiiri pisteen päälle nähdäksesi sääaseman nimen.

Klikkaa sitten nähdäksesi säähavainnot ja -ennusteet.

Kartan vaihtaminen: klikkaa mustalla rastilla varustettuja vihreitä pisteitä, niin voit zoomata sisään; viivalla varustettua vihreää pistettä, niin voit zoomata ulos tai vihreitä nuolia, niin pääset viereisille kartoille.


METAR-TAF: